sensor_id;sensor_type;location;lat;lon;timestamp;temperature;humidity
47338;DHT22;33069;51.970;5.892;2024-03-07T00:01:31;5.70;85.40
47338;DHT22;33069;51.970;5.892;2024-03-07T00:04:17;5.90;85.50
47338;DHT22;33069;51.970;5.892;2024-03-07T00:07:04;5.80;85.20
47338;DHT22;33069;51.970;5.892;2024-03-07T00:09:51;5.90;85.00
47338;DHT22;33069;51.970;5.892;2024-03-07T00:12:39;5.70;84.90
47338;DHT22;33069;51.970;5.892;2024-03-07T00:15:29;5.60;85.00
47338;DHT22;33069;51.970;5.892;2024-03-07T00:18:15;5.60;85.30
47338;DHT22;33069;51.970;5.892;2024-03-07T00:21:02;5.50;85.40
47338;DHT22;33069;51.970;5.892;2024-03-07T00:23:48;5.50;85.60
47338;DHT22;33069;51.970;5.892;2024-03-07T00:26:34;5.70;85.70
47338;DHT22;33069;51.970;5.892;2024-03-07T00:29:20;5.60;85.70
47338;DHT22;33069;51.970;5.892;2024-03-07T00:32:06;5.60;85.70
47338;DHT22;33069;51.970;5.892;2024-03-07T00:34:53;5.50;85.70
47338;DHT22;33069;51.970;5.892;2024-03-07T00:37:39;5.60;85.60
47338;DHT22;33069;51.970;5.892;2024-03-07T00:40:25;5.70;85.50
47338;DHT22;33069;51.970;5.892;2024-03-07T00:43:11;5.60;85.50
47338;DHT22;33069;51.970;5.892;2024-03-07T00:45:57;5.50;85.60
47338;DHT22;33069;51.970;5.892;2024-03-07T00:48:43;5.50;85.70
47338;DHT22;33069;51.970;5.892;2024-03-07T00:51:31;5.60;85.70
47338;DHT22;33069;51.970;5.892;2024-03-07T00:54:17;5.60;85.60
47338;DHT22;33069;51.970;5.892;2024-03-07T00:57:03;5.50;85.50
47338;DHT22;33069;51.970;5.892;2024-03-07T00:59:50;5.50;85.50
47338;DHT22;33069;51.970;5.892;2024-03-07T01:02:36;5.50;85.40
47338;DHT22;33069;51.970;5.892;2024-03-07T01:05:22;5.50;85.30
47338;DHT22;33069;51.970;5.892;2024-03-07T01:08:08;5.50;85.40
47338;DHT22;33069;51.970;5.892;2024-03-07T01:10:54;5.40;85.30
47338;DHT22;33069;51.970;5.892;2024-03-07T01:13:40;5.50;85.40
47338;DHT22;33069;51.970;5.892;2024-03-07T01:16:26;5.40;85.30
47338;DHT22;33069;51.970;5.892;2024-03-07T01:19:12;5.50;85.30
47338;DHT22;33069;51.970;5.892;2024-03-07T01:21:58;5.50;85.20
47338;DHT22;33069;51.970;5.892;2024-03-07T01:24:44;5.50;85.20
47338;DHT22;33069;51.970;5.892;2024-03-07T01:27:30;5.40;85.10
47338;DHT22;33069;51.970;5.892;2024-03-07T01:30:16;5.40;85.30
47338;DHT22;33069;51.970;5.892;2024-03-07T01:33:02;5.30;85.40
47338;DHT22;33069;51.970;5.892;2024-03-07T01:35:49;5.20;85.40
47338;DHT22;33069;51.970;5.892;2024-03-07T01:38:36;5.20;85.50
47338;DHT22;33069;51.970;5.892;2024-03-07T01:41:22;5.20;85.50
47338;DHT22;33069;51.970;5.892;2024-03-07T01:44:08;5.30;85.70
47338;DHT22;33069;51.970;5.892;2024-03-07T01:46:54;5.20;85.50
47338;DHT22;33069;51.970;5.892;2024-03-07T01:49:40;5.20;85.50
47338;DHT22;33069;51.970;5.892;2024-03-07T01:52:26;5.30;85.60
47338;DHT22;33069;51.970;5.892;2024-03-07T01:55:12;5.20;85.50
47338;DHT22;33069;51.970;5.892;2024-03-07T01:58:00;5.30;85.60
47338;DHT22;33069;51.970;5.892;2024-03-07T02:00:47;5.20;85.50
47338;DHT22;33069;51.970;5.892;2024-03-07T02:03:33;5.20;85.40
47338;DHT22;33069;51.970;5.892;2024-03-07T02:06:22;5.10;85.50
47338;DHT22;33069;51.970;5.892;2024-03-07T02:09:09;5.10;85.70
47338;DHT22;33069;51.970;5.892;2024-03-07T02:11:55;5.20;85.60
47338;DHT22;33069;51.970;5.892;2024-03-07T02:14:41;5.20;85.60
47338;DHT22;33069;51.970;5.892;2024-03-07T02:17:28;5.20;85.60
47338;DHT22;33069;51.970;5.892;2024-03-07T02:20:14;5.20;85.40
47338;DHT22;33069;51.970;5.892;2024-03-07T02:23:01;5.20;85.40
47338;DHT22;33069;51.970;5.892;2024-03-07T02:25:49;5.10;85.40
47338;DHT22;33069;51.970;5.892;2024-03-07T02:28:35;5.10;85.40
47338;DHT22;33069;51.970;5.892;2024-03-07T02:31:21;5.20;85.40
47338;DHT22;33069;51.970;5.892;2024-03-07T02:34:14;5.20;85.20
47338;DHT22;33069;51.970;5.892;2024-03-07T02:37:00;5.20;85.10
47338;DHT22;33069;51.970;5.892;2024-03-07T02:39:46;5.20;85.00
47338;DHT22;33069;51.970;5.892;2024-03-07T02:42:32;5.30;84.80
47338;DHT22;33069;51.970;5.892;2024-03-07T02:45:18;5.20;84.70
47338;DHT22;33069;51.970;5.892;2024-03-07T02:48:04;5.20;84.70
47338;DHT22;33069;51.970;5.892;2024-03-07T02:50:55;5.20;84.80
47338;DHT22;33069;51.970;5.892;2024-03-07T02:53:41;5.30;84.90
47338;DHT22;33069;51.970;5.892;2024-03-07T02:56:27;5.20;84.60
47338;DHT22;33069;51.970;5.892;2024-03-07T02:59:13;5.30;84.70
47338;DHT22;33069;51.970;5.892;2024-03-07T03:02:00;5.20;84.60
47338;DHT22;33069;51.970;5.892;2024-03-07T03:04:46;5.10;84.60
47338;DHT22;33069;51.970;5.892;2024-03-07T03:07:32;5.30;84.70
47338;DHT22;33069;51.970;5.892;2024-03-07T03:10:22;5.30;84.50
47338;DHT22;33069;51.970;5.892;2024-03-07T03:13:18;5.30;84.40
47338;DHT22;33069;51.970;5.892;2024-03-07T03:16:05;5.30;84.20
47338;DHT22;33069;51.970;5.892;2024-03-07T03:18:52;5.20;84.20
47338;DHT22;33069;51.970;5.892;2024-03-07T03:21:40;5.30;84.20
47338;DHT22;33069;51.970;5.892;2024-03-07T03:24:26;5.20;84.10
47338;DHT22;33069;51.970;5.892;2024-03-07T03:27:13;5.10;84.00
47338;DHT22;33069;51.970;5.892;2024-03-07T03:29:59;5.20;84.20
47338;DHT22;33069;51.970;5.892;2024-03-07T03:32:46;5.20;84.20
47338;DHT22;33069;51.970;5.892;2024-03-07T03:35:34;5.10;84.20
47338;DHT22;33069;51.970;5.892;2024-03-07T03:38:20;5.20;84.20
47338;DHT22;33069;51.970;5.892;2024-03-07T03:41:07;5.20;84.00
47338;DHT22;33069;51.970;5.892;2024-03-07T03:43:53;5.10;84.10
47338;DHT22;33069;51.970;5.892;2024-03-07T03:46:39;5.20;84.00
47338;DHT22;33069;51.970;5.892;2024-03-07T03:49:25;5.10;84.00
47338;DHT22;33069;51.970;5.892;2024-03-07T03:52:11;5.00;84.10
47338;DHT22;33069;51.970;5.892;2024-03-07T03:54:57;5.00;84.20
47338;DHT22;33069;51.970;5.892;2024-03-07T03:57:44;5.00;84.30
47338;DHT22;33069;51.970;5.892;2024-03-07T04:00:32;4.90;84.40
47338;DHT22;33069;51.970;5.892;2024-03-07T04:03:18;4.90;84.40
47338;DHT22;33069;51.970;5.892;2024-03-07T04:06:04;4.90;84.50
47338;DHT22;33069;51.970;5.892;2024-03-07T04:08:50;4.80;84.70
47338;DHT22;33069;51.970;5.892;2024-03-07T04:11:37;4.80;84.80
47338;DHT22;33069;51.970;5.892;2024-03-07T04:14:24;4.70;85.10
47338;DHT22;33069;51.970;5.892;2024-03-07T04:17:10;4.70;85.20
47338;DHT22;33069;51.970;5.892;2024-03-07T04:20:00;4.70;85.30
47338;DHT22;33069;51.970;5.892;2024-03-07T04:22:46;4.70;85.20
47338;DHT22;33069;51.970;5.892;2024-03-07T04:25:34;4.70;85.20
47338;DHT22;33069;51.970;5.892;2024-03-07T04:28:21;4.70;85.20
47338;DHT22;33069;51.970;5.892;2024-03-07T04:31:08;4.60;85.30
47338;DHT22;33069;51.970;5.892;2024-03-07T04:33:54;4.60;85.30
47338;DHT22;33069;51.970;5.892;2024-03-07T04:36:40;4.50;85.50
47338;DHT22;33069;51.970;5.892;2024-03-07T04:39:27;4.40;85.50
47338;DHT22;33069;51.970;5.892;2024-03-07T04:42:19;4.50;85.60
47338;DHT22;33069;51.970;5.892;2024-03-07T04:45:06;4.40;85.70
47338;DHT22;33069;51.970;5.892;2024-03-07T04:47:52;4.50;85.70
47338;DHT22;33069;51.970;5.892;2024-03-07T04:50:38;4.50;85.70
47338;DHT22;33069;51.970;5.892;2024-03-07T04:53:24;4.40;85.70
47338;DHT22;33069;51.970;5.892;2024-03-07T04:56:10;4.40;85.70
47338;DHT22;33069;51.970;5.892;2024-03-07T04:58:57;4.50;85.60
47338;DHT22;33069;51.970;5.892;2024-03-07T05:01:44;4.50;85.50
47338;DHT22;33069;51.970;5.892;2024-03-07T05:04:30;4.40;85.40
47338;DHT22;33069;51.970;5.892;2024-03-07T05:07:16;4.30;85.40
47338;DHT22;33069;51.970;5.892;2024-03-07T05:10:07;4.30;85.50
47338;DHT22;33069;51.970;5.892;2024-03-07T05:12:53;4.30;85.40
47338;DHT22;33069;51.970;5.892;2024-03-07T05:15:40;4.30;85.40
47338;DHT22;33069;51.970;5.892;2024-03-07T05:18:26;4.30;85.40
47338;DHT22;33069;51.970;5.892;2024-03-07T05:21:12;4.40;85.20
47338;DHT22;33069;51.970;5.892;2024-03-07T05:24:27;4.30;85.20
47338;DHT22;33069;51.970;5.892;2024-03-07T05:27:13;4.30;85.10
47338;DHT22;33069;51.970;5.892;2024-03-07T05:29:59;4.20;85.10
47338;DHT22;33069;51.970;5.892;2024-03-07T05:32:45;4.20;85.10
47338;DHT22;33069;51.970;5.892;2024-03-07T05:35:31;4.20;85.10
47338;DHT22;33069;51.970;5.892;2024-03-07T05:38:17;4.20;85.10
47338;DHT22;33069;51.970;5.892;2024-03-07T05:41:04;4.20;84.90
47338;DHT22;33069;51.970;5.892;2024-03-07T05:43:50;4.10;85.00
47338;DHT22;33069;51.970;5.892;2024-03-07T05:46:39;4.10;85.00
47338;DHT22;33069;51.970;5.892;2024-03-07T05:49:27;4.10;84.90
47338;DHT22;33069;51.970;5.892;2024-03-07T05:52:13;4.10;84.80
47338;DHT22;33069;51.970;5.892;2024-03-07T05:54:59;4.10;84.90
47338;DHT22;33069;51.970;5.892;2024-03-07T05:57:45;4.10;84.70
47338;DHT22;33069;51.970;5.892;2024-03-07T06:00:31;4.20;84.70
47338;DHT22;33069;51.970;5.892;2024-03-07T06:03:20;4.10;84.50
47338;DHT22;33069;51.970;5.892;2024-03-07T06:06:06;4.10;84.40
47338;DHT22;33069;51.970;5.892;2024-03-07T06:08:57;4.10;84.20
47338;DHT22;33069;51.970;5.892;2024-03-07T06:11:43;4.20;84.20
47338;DHT22;33069;51.970;5.892;2024-03-07T06:14:29;4.30;83.90
47338;DHT22;33069;51.970;5.892;2024-03-07T06:17:16;4.20;83.70
47338;DHT22;33069;51.970;5.892;2024-03-07T06:20:05;4.20;83.50
47338;DHT22;33069;51.970;5.892;2024-03-07T06:23:03;4.30;83.50
47338;DHT22;33069;51.970;5.892;2024-03-07T06:25:51;4.20;83.30
47338;DHT22;33069;51.970;5.892;2024-03-07T06:28:37;4.10;83.00
47338;DHT22;33069;51.970;5.892;2024-03-07T06:31:23;4.20;83.10
47338;DHT22;33069;51.970;5.892;2024-03-07T06:34:09;4.10;83.00
47338;DHT22;33069;51.970;5.892;2024-03-07T06:36:56;4.00;82.90
47338;DHT22;33069;51.970;5.892;2024-03-07T06:39:41;4.00;83.00
47338;DHT22;33069;51.970;5.892;2024-03-07T06:42:27;4.20;82.90
47338;DHT22;33069;51.970;5.892;2024-03-07T06:45:14;4.00;82.70
47338;DHT22;33069;51.970;5.892;2024-03-07T06:48:00;4.00;82.90
47338;DHT22;33069;51.970;5.892;2024-03-07T06:50:46;4.00;82.90
47338;DHT22;33069;51.970;5.892;2024-03-07T06:53:32;3.90;82.90
47338;DHT22;33069;51.970;5.892;2024-03-07T06:56:19;3.90;83.10
47338;DHT22;33069;51.970;5.892;2024-03-07T06:59:05;4.00;83.10
47338;DHT22;33069;51.970;5.892;2024-03-07T07:01:51;4.00;83.00
47338;DHT22;33069;51.970;5.892;2024-03-07T07:04:37;4.00;82.80
47338;DHT22;33069;51.970;5.892;2024-03-07T07:07:33;3.90;82.60
47338;DHT22;33069;51.970;5.892;2024-03-07T07:10:21;4.00;82.60
47338;DHT22;33069;51.970;5.892;2024-03-07T07:13:10;4.10;82.60
47338;DHT22;33069;51.970;5.892;2024-03-07T07:15:56;4.20;82.50
47338;DHT22;33069;51.970;5.892;2024-03-07T07:18:42;4.10;82.40
47338;DHT22;33069;51.970;5.892;2024-03-07T07:21:28;4.20;82.20
47338;DHT22;33069;51.970;5.892;2024-03-07T07:24:14;4.30;82.00
47338;DHT22;33069;51.970;5.892;2024-03-07T07:27:00;4.30;81.60
47338;DHT22;33069;51.970;5.892;2024-03-07T07:29:47;4.30;81.40
47338;DHT22;33069;51.970;5.892;2024-03-07T07:32:33;4.30;80.90
47338;DHT22;33069;51.970;5.892;2024-03-07T07:35:19;4.20;80.90
47338;DHT22;33069;51.970;5.892;2024-03-07T07:38:06;4.30;80.80
47338;DHT22;33069;51.970;5.892;2024-03-07T07:40:52;4.40;80.80
47338;DHT22;33069;51.970;5.892;2024-03-07T07:43:40;4.50;80.40
47338;DHT22;33069;51.970;5.892;2024-03-07T07:46:26;4.50;80.00
47338;DHT22;33069;51.970;5.892;2024-03-07T07:49:12;4.70;80.00
47338;DHT22;33069;51.970;5.892;2024-03-07T07:51:58;4.70;79.30
47338;DHT22;33069;51.970;5.892;2024-03-07T07:54:44;4.70;79.30
47338;DHT22;33069;51.970;5.892;2024-03-07T07:57:30;4.70;78.80
47338;DHT22;33069;51.970;5.892;2024-03-07T08:00:17;4.80;78.80
47338;DHT22;33069;51.970;5.892;2024-03-07T08:03:09;4.80;78.80
47338;DHT22;33069;51.970;5.892;2024-03-07T08:05:56;4.80;78.10
47338;DHT22;33069;51.970;5.892;2024-03-07T08:08:42;4.90;78.10
47338;DHT22;33069;51.970;5.892;2024-03-07T08:11:28;4.90;77.50
47338;DHT22;33069;51.970;5.892;2024-03-07T08:14:14;5.00;77.50
47338;DHT22;33069;51.970;5.892;2024-03-07T08:17:00;5.10;77.10
47338;DHT22;33069;51.970;5.892;2024-03-07T08:19:47;5.10;77.20
47338;DHT22;33069;51.970;5.892;2024-03-07T08:22:34;5.10;76.80
47338;DHT22;33069;51.970;5.892;2024-03-07T08:25:21;5.20;76.80
47338;DHT22;33069;51.970;5.892;2024-03-07T08:28:10;5.20;76.50
47338;DHT22;33069;51.970;5.892;2024-03-07T08:30:57;5.10;76.40
47338;DHT22;33069;51.970;5.892;2024-03-07T08:33:44;5.20;76.60
47338;DHT22;33069;51.970;5.892;2024-03-07T08:36:31;5.20;76.30
47338;DHT22;33069;51.970;5.892;2024-03-07T08:39:17;5.20;76.30
47338;DHT22;33069;51.970;5.892;2024-03-07T08:42:05;5.20;76.10
47338;DHT22;33069;51.970;5.892;2024-03-07T08:44:51;5.20;75.80
47338;DHT22;33069;51.970;5.892;2024-03-07T08:47:37;5.20;76.10
47338;DHT22;33069;51.970;5.892;2024-03-07T08:50:24;5.30;76.00
47338;DHT22;33069;51.970;5.892;2024-03-07T08:53:11;5.30;75.80
47338;DHT22;33069;51.970;5.892;2024-03-07T08:55:57;5.50;76.10
47338;DHT22;33069;51.970;5.892;2024-03-07T08:58:47;5.60;76.00
47338;DHT22;33069;51.970;5.892;2024-03-07T09:01:33;5.70;75.90
47338;DHT22;33069;51.970;5.892;2024-03-07T09:04:20;5.70;75.40
47338;DHT22;33069;51.970;5.892;2024-03-07T09:07:07;5.70;75.10
47338;DHT22;33069;51.970;5.892;2024-03-07T09:09:53;5.60;75.20
47338;DHT22;33069;51.970;5.892;2024-03-07T09:12:39;5.60;75.40
47338;DHT22;33069;51.970;5.892;2024-03-07T09:15:25;5.80;75.50
47338;DHT22;33069;51.970;5.892;2024-03-07T09:18:12;5.70;74.90
47338;DHT22;33069;51.970;5.892;2024-03-07T09:20:59;5.80;75.10
47338;DHT22;33069;51.970;5.892;2024-03-07T09:23:45;5.90;74.30
47338;DHT22;33069;51.970;5.892;2024-03-07T09:26:31;6.00;74.40
47338;DHT22;33069;51.970;5.892;2024-03-07T09:29:18;6.00;74.10
47338;DHT22;33069;51.970;5.892;2024-03-07T09:32:05;6.10;73.50
47338;DHT22;33069;51.970;5.892;2024-03-07T09:34:54;6.20;73.60
47338;DHT22;33069;51.970;5.892;2024-03-07T09:37:41;6.30;73.40
47338;DHT22;33069;51.970;5.892;2024-03-07T09:40:27;6.40;73.50
47338;DHT22;33069;51.970;5.892;2024-03-07T09:43:14;6.30;73.30
47338;DHT22;33069;51.970;5.892;2024-03-07T09:46:03;6.30;73.20
47338;DHT22;33069;51.970;5.892;2024-03-07T09:48:50;6.40;73.20
47338;DHT22;33069;51.970;5.892;2024-03-07T09:51:39;6.30;73.10
47338;DHT22;33069;51.970;5.892;2024-03-07T09:54:25;6.40;72.40
47338;DHT22;33069;51.970;5.892;2024-03-07T09:57:13;6.60;72.10
47338;DHT22;33069;51.970;5.892;2024-03-07T10:00:00;6.70;71.90
47338;DHT22;33069;51.970;5.892;2024-03-07T10:05:45;7.00;71.30
47338;DHT22;33069;51.970;5.892;2024-03-07T10:08:31;7.10;70.70
47338;DHT22;33069;51.970;5.892;2024-03-07T10:11:17;7.20;69.20
47338;DHT22;33069;51.970;5.892;2024-03-07T10:14:03;7.30;68.50
47338;DHT22;33069;51.970;5.892;2024-03-07T10:16:53;7.40;69.00
47338;DHT22;33069;51.970;5.892;2024-03-07T10:19:40;7.40;68.20
47338;DHT22;33069;51.970;5.892;2024-03-07T10:22:27;7.40;68.30
47338;DHT22;33069;51.970;5.892;2024-03-07T10:25:13;7.60;68.80
47338;DHT22;33069;51.970;5.892;2024-03-07T10:28:01;7.40;68.20
47338;DHT22;33069;51.970;5.892;2024-03-07T10:30:49;7.50;68.80
47338;DHT22;33069;51.970;5.892;2024-03-07T10:33:35;7.30;68.90
47338;DHT22;33069;51.970;5.892;2024-03-07T10:36:22;7.30;69.30
47338;DHT22;33069;51.970;5.892;2024-03-07T10:39:08;7.40;68.80
47338;DHT22;33069;51.970;5.892;2024-03-07T10:42:01;7.30;68.80
47338;DHT22;33069;51.970;5.892;2024-03-07T10:44:53;7.40;68.50
47338;DHT22;33069;51.970;5.892;2024-03-07T10:47:43;7.40;68.20
47338;DHT22;33069;51.970;5.892;2024-03-07T10:51:25;7.60;68.30
47338;DHT22;33069;51.970;5.892;2024-03-07T10:54:24;7.90;68.40
47338;DHT22;33069;51.970;5.892;2024-03-07T10:57:21;8.00;67.80
47338;DHT22;33069;51.970;5.892;2024-03-07T11:00:10;8.00;67.10
47338;DHT22;33069;51.970;5.892;2024-03-07T11:03:15;8.00;67.40
47338;DHT22;33069;51.970;5.892;2024-03-07T11:06:02;7.90;67.30
47338;DHT22;33069;51.970;5.892;2024-03-07T11:08:52;8.00;67.50
47338;DHT22;33069;51.970;5.892;2024-03-07T11:11:39;8.30;67.40
47338;DHT22;33069;51.970;5.892;2024-03-07T11:14:30;8.40;67.00
47338;DHT22;33069;51.970;5.892;2024-03-07T11:17:18;8.30;65.70
47338;DHT22;33069;51.970;5.892;2024-03-07T11:20:25;8.30;65.60
47338;DHT22;33069;51.970;5.892;2024-03-07T11:23:27;8.20;66.00
47338;DHT22;33069;51.970;5.892;2024-03-07T11:26:14;8.40;65.80
47338;DHT22;33069;51.970;5.892;2024-03-07T11:29:00;8.70;64.90
47338;DHT22;33069;51.970;5.892;2024-03-07T11:31:46;8.70;64.20
47338;DHT22;33069;51.970;5.892;2024-03-07T11:34:37;8.90;64.40
47338;DHT22;33069;51.970;5.892;2024-03-07T11:37:43;9.00;64.20
47338;DHT22;33069;51.970;5.892;2024-03-07T11:43:17;8.90;63.30
47338;DHT22;33069;51.970;5.892;2024-03-07T11:46:04;9.00;63.00
47338;DHT22;33069;51.970;5.892;2024-03-07T11:48:57;8.90;63.70
47338;DHT22;33069;51.970;5.892;2024-03-07T11:51:45;9.00;63.20
47338;DHT22;33069;51.970;5.892;2024-03-07T11:54:33;8.80;63.80
47338;DHT22;33069;51.970;5.892;2024-03-07T11:57:19;8.80;63.60
47338;DHT22;33069;51.970;5.892;2024-03-07T12:00:12;8.40;64.40
47338;DHT22;33069;51.970;5.892;2024-03-07T12:02:59;8.50;65.20
47338;DHT22;33069;51.970;5.892;2024-03-07T12:05:45;8.60;65.20
47338;DHT22;33069;51.970;5.892;2024-03-07T12:08:32;8.70;65.00
47338;DHT22;33069;51.970;5.892;2024-03-07T12:11:18;8.80;64.70
47338;DHT22;33069;51.970;5.892;2024-03-07T12:14:04;8.90;64.60
47338;DHT22;33069;51.970;5.892;2024-03-07T12:16:51;8.70;65.30
47338;DHT22;33069;51.970;5.892;2024-03-07T12:19:38;8.60;65.20
47338;DHT22;33069;51.970;5.892;2024-03-07T12:22:24;8.40;66.40
47338;DHT22;33069;51.970;5.892;2024-03-07T12:25:11;8.40;67.20
47338;DHT22;33069;51.970;5.892;2024-03-07T12:28:11;8.40;66.10
47338;DHT22;33069;51.970;5.892;2024-03-07T12:30:57;8.40;65.90
47338;DHT22;33069;51.970;5.892;2024-03-07T12:33:43;8.50;65.40
47338;DHT22;33069;51.970;5.892;2024-03-07T12:36:32;8.30;65.40
47338;DHT22;33069;51.970;5.892;2024-03-07T12:39:24;8.70;65.80
47338;DHT22;33069;51.970;5.892;2024-03-07T12:42:18;8.30;66.50
47338;DHT22;33069;51.970;5.892;2024-03-07T12:45:05;8.60;66.90
47338;DHT22;33069;51.970;5.892;2024-03-07T12:47:52;8.70;66.70
47338;DHT22;33069;51.970;5.892;2024-03-07T12:50:41;8.90;66.70
47338;DHT22;33069;51.970;5.892;2024-03-07T12:53:27;9.00;66.80
47338;DHT22;33069;51.970;5.892;2024-03-07T12:56:14;9.20;66.80
47338;DHT22;33069;51.970;5.892;2024-03-07T12:59:03;9.30;66.60
47338;DHT22;33069;51.970;5.892;2024-03-07T13:01:50;9.20;67.00
47338;DHT22;33069;51.970;5.892;2024-03-07T13:04:37;9.10;66.70
47338;DHT22;33069;51.970;5.892;2024-03-07T13:07:25;9.10;67.60
47338;DHT22;33069;51.970;5.892;2024-03-07T13:10:11;9.00;67.90
47338;DHT22;33069;51.970;5.892;2024-03-07T13:13:00;9.30;67.60
47338;DHT22;33069;51.970;5.892;2024-03-07T13:15:48;9.10;67.70
47338;DHT22;33069;51.970;5.892;2024-03-07T13:18:36;9.20;67.40
47338;DHT22;33069;51.970;5.892;2024-03-07T13:21:23;9.00;67.80
47338;DHT22;33069;51.970;5.892;2024-03-07T13:24:09;8.90;67.70
47338;DHT22;33069;51.970;5.892;2024-03-07T13:26:55;9.10;68.50
47338;DHT22;33069;51.970;5.892;2024-03-07T13:29:41;9.20;68.70
47338;DHT22;33069;51.970;5.892;2024-03-07T13:32:28;9.50;68.00
47338;DHT22;33069;51.970;5.892;2024-03-07T13:35:15;9.70;67.80
47338;DHT22;33069;51.970;5.892;2024-03-07T13:38:01;9.80;67.10
47338;DHT22;33069;51.970;5.892;2024-03-07T13:40:47;9.60;67.60
47338;DHT22;33069;51.970;5.892;2024-03-07T13:43:35;9.70;67.40
47338;DHT22;33069;51.970;5.892;2024-03-07T13:46:21;9.80;67.10
47338;DHT22;33069;51.970;5.892;2024-03-07T13:49:07;10.00;67.50
47338;DHT22;33069;51.970;5.892;2024-03-07T13:51:58;9.80;67.70
47338;DHT22;33069;51.970;5.892;2024-03-07T13:54:56;9.70;67.10
47338;DHT22;33069;51.970;5.892;2024-03-07T13:57:47;9.90;68.00
47338;DHT22;33069;51.970;5.892;2024-03-07T14:31:39;8.90;68.20
47338;DHT22;33069;51.970;5.892;2024-03-07T14:37:25;9.50;67.60
47338;DHT22;33069;51.970;5.892;2024-03-07T14:40:14;9.30;67.10
47338;DHT22;33069;51.970;5.892;2024-03-07T14:43:03;9.10;68.70
47338;DHT22;33069;51.970;5.892;2024-03-07T14:45:50;8.90;69.10
47338;DHT22;33069;51.970;5.892;2024-03-07T14:48:40;8.80;68.90
47338;DHT22;33069;51.970;5.892;2024-03-07T14:51:27;9.10;69.20
47338;DHT22;33069;51.970;5.892;2024-03-07T14:54:13;9.40;68.00
47338;DHT22;33069;51.970;5.892;2024-03-07T14:56:59;9.50;66.90
47338;DHT22;33069;51.970;5.892;2024-03-07T14:59:45;9.70;66.30
47338;DHT22;33069;51.970;5.892;2024-03-07T15:02:31;9.90;65.90
47338;DHT22;33069;51.970;5.892;2024-03-07T15:05:18;10.10;66.30
47338;DHT22;33069;51.970;5.892;2024-03-07T15:08:06;10.10;66.00
47338;DHT22;33069;51.970;5.892;2024-03-07T15:11:02;9.50;67.00
47338;DHT22;33069;51.970;5.892;2024-03-07T15:13:54;9.50;67.10
47338;DHT22;33069;51.970;5.892;2024-03-07T15:16:41;9.70;66.80
47338;DHT22;33069;51.970;5.892;2024-03-07T15:19:27;10.10;66.40
47338;DHT22;33069;51.970;5.892;2024-03-07T15:22:16;10.00;65.80
47338;DHT22;33069;51.970;5.892;2024-03-07T15:25:06;10.00;66.80
47338;DHT22;33069;51.970;5.892;2024-03-07T15:27:58;10.10;65.60
47338;DHT22;33069;51.970;5.892;2024-03-07T15:30:44;10.40;64.40
47338;DHT22;33069;51.970;5.892;2024-03-07T15:33:30;10.20;64.00
47338;DHT22;33069;51.970;5.892;2024-03-07T15:36:17;10.40;64.20
47338;DHT22;33069;51.970;5.892;2024-03-07T15:39:04;10.40;64.30
47338;DHT22;33069;51.970;5.892;2024-03-07T15:42:01;10.20;65.30
47338;DHT22;33069;51.970;5.892;2024-03-07T15:44:47;10.20;66.10
47338;DHT22;33069;51.970;5.892;2024-03-07T15:47:33;10.50;65.50
47338;DHT22;33069;51.970;5.892;2024-03-07T15:50:20;10.70;64.20
47338;DHT22;33069;51.970;5.892;2024-03-07T15:53:07;10.30;65.30
47338;DHT22;33069;51.970;5.892;2024-03-07T15:55:53;10.70;65.10
47338;DHT22;33069;51.970;5.892;2024-03-07T15:58:39;10.70;64.30
47338;DHT22;33069;51.970;5.892;2024-03-07T16:01:25;10.40;65.00
47338;DHT22;33069;51.970;5.892;2024-03-07T16:04:11;10.00;66.30
47338;DHT22;33069;51.970;5.892;2024-03-07T16:06:58;10.00;66.30
47338;DHT22;33069;51.970;5.892;2024-03-07T16:09:44;10.10;65.40
47338;DHT22;33069;51.970;5.892;2024-03-07T16:12:30;10.00;65.70
47338;DHT22;33069;51.970;5.892;2024-03-07T16:15:20;10.00;65.90
47338;DHT22;33069;51.970;5.892;2024-03-07T16:18:09;10.20;64.90
47338;DHT22;33069;51.970;5.892;2024-03-07T16:20:55;10.30;65.10
47338;DHT22;33069;51.970;5.892;2024-03-07T16:23:43;10.20;64.50
47338;DHT22;33069;51.970;5.892;2024-03-07T16:26:36;10.20;64.60
47338;DHT22;33069;51.970;5.892;2024-03-07T16:29:22;10.20;64.40
47338;DHT22;33069;51.970;5.892;2024-03-07T16:32:09;10.20;63.90
47338;DHT22;33069;51.970;5.892;2024-03-07T16:34:57;10.10;64.20
47338;DHT22;33069;51.970;5.892;2024-03-07T16:37:48;9.70;65.20
47338;DHT22;33069;51.970;5.892;2024-03-07T16:40:34;9.70;66.40
47338;DHT22;33069;51.970;5.892;2024-03-07T16:43:20;9.60;66.60
47338;DHT22;33069;51.970;5.892;2024-03-07T16:46:10;9.40;67.40
47338;DHT22;33069;51.970;5.892;2024-03-07T16:48:56;9.00;68.80
47338;DHT22;33069;51.970;5.892;2024-03-07T16:51:42;8.70;69.70
47338;DHT22;33069;51.970;5.892;2024-03-07T16:54:28;8.50;70.90
47338;DHT22;33069;51.970;5.892;2024-03-07T16:57:14;8.50;71.50
47338;DHT22;33069;51.970;5.892;2024-03-07T17:00:01;8.40;70.10
47338;DHT22;33069;51.970;5.892;2024-03-07T17:02:48;8.20;70.90
47338;DHT22;33069;51.970;5.892;2024-03-07T17:05:36;8.10;71.00
47338;DHT22;33069;51.970;5.892;2024-03-07T17:08:24;7.90;71.10
47338;DHT22;33069;51.970;5.892;2024-03-07T17:11:11;7.70;72.10
47338;DHT22;33069;51.970;5.892;2024-03-07T17:13:59;7.80;72.00
47338;DHT22;33069;51.970;5.892;2024-03-07T17:16:45;7.80;72.00
47338;DHT22;33069;51.970;5.892;2024-03-07T17:19:31;7.70;71.90
47338;DHT22;33069;51.970;5.892;2024-03-07T17:22:17;7.50;72.40
47338;DHT22;33069;51.970;5.892;2024-03-07T17:25:05;7.60;72.30
47338;DHT22;33069;51.970;5.892;2024-03-07T17:27:52;7.30;72.60
47338;DHT22;33069;51.970;5.892;2024-03-07T17:30:38;7.30;73.20
47338;DHT22;33069;51.970;5.892;2024-03-07T17:33:26;7.10;73.30
47338;DHT22;33069;51.970;5.892;2024-03-07T17:36:13;7.20;73.50
47338;DHT22;33069;51.970;5.892;2024-03-07T17:39:00;7.30;73.40
47338;DHT22;33069;51.970;5.892;2024-03-07T17:41:48;7.20;73.00
47338;DHT22;33069;51.970;5.892;2024-03-07T17:44:37;7.20;72.80
47338;DHT22;33069;51.970;5.892;2024-03-07T17:47:23;7.20;72.80
47338;DHT22;33069;51.970;5.892;2024-03-07T17:50:14;7.00;72.80
47338;DHT22;33069;51.970;5.892;2024-03-07T17:53:03;7.10;72.80
47338;DHT22;33069;51.970;5.892;2024-03-07T17:55:53;7.20;72.90
47338;DHT22;33069;51.970;5.892;2024-03-07T17:58:42;7.10;72.70
47338;DHT22;33069;51.970;5.892;2024-03-07T18:01:28;7.00;73.10
47338;DHT22;33069;51.970;5.892;2024-03-07T18:04:14;7.00;73.20
47338;DHT22;33069;51.970;5.892;2024-03-07T18:07:00;7.00;73.30
47338;DHT22;33069;51.970;5.892;2024-03-07T18:09:46;6.90;73.50
47338;DHT22;33069;51.970;5.892;2024-03-07T18:12:32;7.00;73.50
47338;DHT22;33069;51.970;5.892;2024-03-07T18:15:22;6.90;73.20
47338;DHT22;33069;51.970;5.892;2024-03-07T18:18:12;6.90;73.60
47338;DHT22;33069;51.970;5.892;2024-03-07T18:21:01;6.80;74.00
47338;DHT22;33069;51.970;5.892;2024-03-07T18:23:47;6.90;74.00
47338;DHT22;33069;51.970;5.892;2024-03-07T18:26:34;6.80;73.80
47338;DHT22;33069;51.970;5.892;2024-03-07T18:29:21;6.80;73.70
47338;DHT22;33069;51.970;5.892;2024-03-07T18:32:07;6.70;74.10
47338;DHT22;33069;51.970;5.892;2024-03-07T18:34:56;6.70;74.40